createdAt,value
2019-05-10T00:01:15.981Z,10.48
2019-05-10T00:03:40.047Z,10.40
2019-05-10T00:06:04.446Z,10.32
2019-05-10T00:08:30.158Z,10.24
2019-05-10T00:10:36.918Z,10.16
2019-05-10T00:12:44.824Z,10.12
2019-05-10T00:14:52.659Z,10.12
2019-05-10T00:17:04.030Z,10.13
2019-05-10T00:19:21.239Z,10.13
2019-05-10T00:21:30.413Z,10.15
2019-05-10T00:23:41.276Z,10.16
2019-05-10T00:25:56.369Z,10.17
2019-05-10T00:27:59.467Z,10.17
2019-05-10T00:30:11.681Z,10.18
2019-05-10T00:32:18.022Z,10.20
2019-05-10T00:34:24.604Z,10.20
2019-05-10T00:36:30.946Z,10.21
2019-05-10T00:38:37.328Z,10.22
2019-05-10T00:40:44.289Z,10.23
2019-05-10T00:42:50.666Z,10.23
2019-05-10T00:44:57.542Z,10.23
2019-05-10T00:47:04.544Z,10.24
2019-05-10T00:49:11.317Z,10.23
2019-05-10T00:51:17.738Z,10.24
2019-05-10T00:53:23.983Z,10.24
2019-05-10T00:55:30.467Z,10.24
2019-05-10T00:57:38.163Z,10.22
2019-05-10T00:59:44.537Z,10.23
2019-05-10T01:01:51.088Z,10.24
2019-05-10T01:03:57.420Z,10.25
2019-05-10T01:06:03.881Z,10.23
2019-05-10T01:08:10.293Z,10.24
2019-05-10T01:10:18.077Z,10.26
2019-05-10T01:12:24.603Z,10.28
2019-05-10T01:14:30.896Z,10.28
2019-05-10T01:16:37.388Z,10.29
2019-05-10T01:18:43.951Z,10.28
2019-05-10T01:20:50.622Z,10.28
2019-05-10T01:22:56.983Z,10.30
2019-05-10T01:25:03.328Z,10.31
2019-05-10T01:27:09.598Z,10.32
2019-05-10T01:29:17.816Z,10.31
2019-05-10T01:31:24.484Z,10.28
2019-05-10T01:33:30.844Z,10.27
2019-05-10T01:35:37.186Z,10.28
2019-05-10T01:37:45.220Z,10.28
2019-05-10T01:39:51.670Z,10.30
2019-05-10T01:41:58.035Z,10.29
2019-05-10T01:44:04.590Z,10.31
2019-05-10T01:46:11.169Z,10.31
2019-05-10T01:48:18.029Z,10.30
2019-05-10T01:50:24.418Z,10.29
2019-05-10T01:52:31.148Z,10.31
2019-05-10T01:54:38.124Z,10.32
2019-05-10T01:56:46.425Z,10.29
2019-05-10T01:58:53.028Z,10.31
2019-05-10T02:01:00.547Z,10.28
2019-05-10T02:03:08.227Z,10.29
2019-05-10T02:05:17.034Z,10.29
2019-05-10T02:07:23.399Z,10.37
2019-05-10T02:09:33.271Z,10.38
2019-05-10T02:11:37.860Z,10.37
2019-05-10T02:13:45.956Z,10.44
2019-05-10T02:15:52.642Z,10.41
2019-05-10T02:17:59.115Z,10.42
2019-05-10T02:20:08.895Z,10.44
2019-05-10T02:22:15.273Z,10.48
2019-05-10T02:24:21.667Z,10.45
2019-05-10T02:26:28.529Z,10.42
2019-05-10T02:28:34.897Z,10.39
2019-05-10T02:30:41.258Z,10.33
2019-05-10T02:32:47.698Z,10.27
2019-05-10T02:34:53.969Z,10.23
2019-05-10T02:37:02.008Z,10.19
2019-05-10T02:39:10.238Z,10.17
2019-05-10T02:41:16.553Z,10.19
2019-05-10T02:43:24.346Z,10.15
2019-05-10T02:45:30.818Z,10.10
2019-05-10T02:47:40.774Z,10.11
2019-05-10T02:49:47.019Z,10.09
2019-05-10T02:51:53.386Z,10.09
2019-05-10T02:54:00.956Z,10.13
2019-05-10T02:56:07.440Z,10.14
2019-05-10T03:00:31.181Z,10.25
2019-05-10T03:02:39.338Z,10.33
2019-05-10T03:04:48.024Z,10.34
2019-05-10T03:07:03.693Z,10.33
2019-05-10T03:09:10.212Z,10.35
2019-05-10T03:11:17.189Z,10.38
2019-05-10T03:13:29.186Z,10.36
2019-05-10T03:15:39.179Z,10.33
2019-05-10T03:17:48.064Z,10.36
2019-05-10T03:19:55.412Z,10.33
2019-05-10T03:22:07.579Z,10.33
2019-05-10T03:24:14.407Z,10.36
2019-05-10T03:26:21.081Z,10.52
2019-05-10T03:28:29.180Z,10.50
2019-05-10T03:30:35.953Z,10.49
2019-05-10T03:32:42.497Z,10.49
2019-05-10T03:34:49.078Z,10.54
2019-05-10T03:36:56.363Z,10.58
2019-05-10T03:39:02.715Z,10.62
2019-05-10T03:41:09.282Z,10.72
2019-05-10T03:43:15.866Z,10.71
2019-05-10T03:45:22.212Z,10.75
2019-05-10T03:47:28.568Z,10.93
2019-05-10T03:49:34.861Z,11.03
2019-05-10T03:51:41.414Z,11.06
2019-05-10T03:53:47.770Z,11.21
2019-05-10T03:55:54.153Z,11.43
2019-05-10T03:58:00.913Z,11.59
2019-05-10T04:00:11.637Z,11.89
2019-05-10T04:02:18.129Z,12.17
2019-05-10T04:04:25.925Z,12.61
2019-05-10T04:06:33.109Z,13.05
2019-05-10T04:08:39.604Z,13.13
2019-05-10T04:10:47.389Z,13.08
2019-05-10T04:12:53.732Z,13.06
2019-05-10T04:15:00.109Z,12.99
2019-05-10T04:17:06.461Z,12.76
2019-05-10T04:19:14.170Z,12.77
2019-05-10T04:21:23.291Z,13.16
2019-05-10T04:23:29.658Z,13.55
2019-05-10T04:25:37.633Z,14.05
2019-05-10T04:27:44.286Z,14.33
2019-05-10T04:29:50.692Z,13.78
2019-05-10T04:31:57.253Z,13.87
2019-05-10T04:34:03.610Z,13.95
2019-05-10T04:36:12.556Z,14.16
2019-05-10T04:38:17.984Z,14.77
2019-05-10T04:40:27.447Z,15.36
2019-05-10T04:42:33.867Z,15.55
2019-05-10T04:44:40.242Z,15.93
2019-05-10T04:46:46.596Z,16.27
2019-05-10T04:48:52.952Z,15.73
2019-05-10T04:51:00.615Z,15.27
2019-05-10T04:53:07.025Z,14.81
2019-05-10T04:55:13.496Z,14.34
2019-05-10T04:57:19.939Z,13.81
2019-05-10T04:59:26.279Z,13.51
2019-05-10T05:01:32.766Z,13.15
2019-05-10T05:03:40.010Z,13.23
2019-05-10T05:05:46.449Z,13.45
2019-05-10T05:07:54.639Z,13.97
2019-05-10T05:10:04.478Z,14.28
2019-05-10T05:12:10.957Z,14.32
2019-05-10T05:14:17.428Z,14.12
2019-05-10T05:16:24.188Z,14.19
2019-05-10T05:18:31.983Z,13.91
2019-05-10T05:20:38.330Z,13.90
2019-05-10T05:22:44.714Z,13.67
2019-05-10T05:24:55.249Z,13.52
2019-05-10T05:26:59.171Z,13.41
2019-05-10T05:29:05.631Z,13.46
2019-05-10T05:31:12.308Z,13.41
2019-05-10T05:33:18.886Z,13.48
2019-05-10T05:35:25.641Z,13.37
2019-05-10T05:37:32.104Z,13.48
2019-05-10T05:39:38.556Z,13.67
2019-05-10T05:41:51.764Z,13.80
2019-05-10T05:43:54.677Z,13.81
2019-05-10T05:46:01.038Z,13.70
2019-05-10T05:48:09.548Z,13.61
2019-05-10T05:50:16.208Z,13.55
2019-05-10T05:52:23.103Z,13.81
2019-05-10T05:54:31.033Z,14.01
2019-05-10T05:56:37.367Z,14.09
2019-05-10T05:58:47.095Z,13.99
2019-05-10T06:00:54.591Z,13.70
2019-05-10T06:03:00.961Z,13.79
2019-05-10T06:05:10.473Z,13.70
2019-05-10T06:07:16.747Z,13.87
2019-05-10T06:09:24.338Z,13.93
2019-05-10T06:11:35.827Z,13.95
2019-05-10T06:13:40.242Z,14.10
2019-05-10T06:15:46.810Z,14.53
2019-05-10T06:17:56.997Z,14.74
2019-05-10T06:20:05.924Z,14.89
2019-05-10T06:22:10.614Z,14.66
2019-05-10T06:24:17.397Z,14.71
2019-05-10T06:26:28.398Z,14.77
2019-05-10T06:28:56.851Z,14.85
2019-05-10T06:30:40.049Z,14.97
2019-05-10T06:32:46.815Z,15.06
2019-05-10T06:34:53.400Z,15.16
2019-05-10T06:36:59.850Z,15.19
2019-05-10T06:39:08.817Z,15.28
2019-05-10T06:41:16.623Z,15.19
2019-05-10T06:43:23.330Z,14.83
2019-05-10T06:45:30.949Z,14.60
2019-05-10T06:47:42.094Z,14.63
2019-05-10T06:49:50.806Z,14.78
2019-05-10T06:51:53.814Z,14.86
2019-05-10T06:54:00.390Z,14.92
2019-05-10T06:56:06.790Z,14.92
2019-05-10T06:58:13.211Z,15.00
2019-05-10T07:00:20.593Z,14.81
2019-05-10T07:02:32.203Z,14.88
2019-05-10T07:04:40.770Z,15.03
2019-05-10T07:06:43.781Z,15.31
2019-05-10T07:08:51.767Z,15.35
2019-05-10T07:10:59.577Z,15.44
2019-05-10T07:13:06.633Z,15.41
2019-05-10T07:15:14.108Z,15.36
2019-05-10T07:17:20.602Z,15.34
2019-05-10T07:19:28.871Z,15.40
2019-05-10T07:21:39.136Z,15.48
2019-05-10T07:23:44.727Z,15.48
2019-05-10T07:25:52.463Z,15.70
2019-05-10T07:27:58.979Z,15.79
2019-05-10T07:30:07.053Z,15.92
2019-05-10T07:32:16.511Z,16.04
2019-05-10T07:34:21.762Z,15.81
2019-05-10T07:36:31.257Z,15.61
2019-05-10T07:38:37.639Z,15.64
2019-05-10T07:40:44.116Z,15.85
2019-05-10T07:42:51.929Z,15.69
2019-05-10T07:45:00.433Z,15.85
2019-05-10T07:47:06.898Z,16.10
2019-05-10T07:49:13.569Z,16.29
2019-05-10T07:51:22.743Z,16.49
2019-05-10T07:53:28.835Z,16.64
2019-05-10T07:55:35.422Z,16.38
2019-05-10T07:57:41.797Z,16.25
2019-05-10T07:59:50.898Z,16.36
2019-05-10T08:01:56.548Z,16.81
2019-05-10T08:04:03.118Z,17.11
2019-05-10T08:06:09.682Z,17.12
2019-05-10T08:08:16.042Z,17.22
2019-05-10T08:10:24.763Z,17.24
2019-05-10T08:12:35.184Z,16.91
2019-05-10T08:14:39.530Z,17.05
2019-05-10T08:16:49.829Z,17.51
2019-05-10T08:18:55.836Z,17.58
2019-05-10T08:21:17.971Z,17.40
2019-05-10T08:23:13.073Z,17.10
2019-05-10T08:25:19.331Z,17.46
2019-05-10T08:27:26.004Z,17.50
2019-05-10T08:29:33.581Z,17.61
2019-05-10T08:31:47.039Z,17.11
2019-05-10T08:33:56.220Z,17.01
2019-05-10T08:36:00.550Z,17.24
2019-05-10T08:38:05.089Z,16.98
2019-05-10T08:40:12.787Z,17.22
2019-05-10T08:42:34.790Z,17.16
2019-05-10T08:44:27.439Z,17.38
2019-05-10T08:46:40.897Z,17.37
2019-05-10T08:48:46.202Z,17.61
2019-05-10T08:50:56.864Z,17.66
2019-05-10T08:53:02.368Z,17.93
2019-05-10T08:55:08.886Z,18.16
2019-05-10T08:59:44.272Z,17.40
2019-05-10T09:01:53.556Z,17.53
2019-05-10T09:04:00.838Z,17.74
2019-05-10T09:06:11.706Z,17.85
2019-05-10T09:08:20.346Z,17.88
2019-05-10T09:10:25.293Z,17.87
2019-05-10T09:12:32.923Z,17.77
2019-05-10T09:14:39.772Z,17.89
2019-05-10T09:16:56.291Z,18.34
2019-05-10T09:18:54.110Z,18.43
2019-05-10T09:21:08.478Z,18.30
2019-05-10T09:23:15.248Z,18.42
2019-05-10T09:25:29.184Z,18.06
2019-05-10T09:27:29.446Z,18.03
2019-05-10T09:29:37.521Z,18.13
2019-05-10T09:31:50.307Z,18.28
2019-05-10T09:33:54.410Z,18.39
2019-05-10T09:36:02.979Z,18.53
2019-05-10T09:38:12.304Z,18.58
2019-05-10T09:40:18.284Z,18.42
2019-05-10T09:42:30.650Z,18.28
2019-05-10T09:44:33.104Z,18.12
2019-05-10T09:46:42.037Z,18.23
2019-05-10T09:48:47.983Z,18.59
2019-05-10T09:50:55.987Z,18.55
2019-05-10T09:53:04.072Z,18.30
2019-05-10T09:55:14.654Z,18.54
2019-05-10T09:57:18.751Z,18.56
2019-05-10T09:59:25.095Z,18.59
2019-05-10T10:01:31.472Z,18.59
2019-05-10T10:03:44.973Z,18.66
2019-05-10T10:06:05.086Z,18.56
2019-05-10T10:08:11.040Z,18.48
2019-05-10T10:10:28.517Z,18.32
2019-05-10T10:12:28.920Z,18.28
2019-05-10T10:14:39.380Z,18.07
2019-05-10T10:16:48.949Z,18.10
2019-05-10T10:18:51.046Z,18.06
2019-05-10T10:20:58.538Z,18.11
2019-05-10T10:23:07.579Z,18.31
2019-05-10T10:25:14.397Z,18.53
2019-05-10T10:27:20.591Z,18.69
2019-05-10T10:29:28.692Z,18.78
2019-05-10T10:31:46.536Z,18.80
2019-05-10T10:33:54.825Z,18.84
2019-05-10T10:35:56.196Z,18.87
2019-05-10T10:38:03.110Z,18.76
2019-05-10T10:40:09.616Z,18.82
2019-05-10T10:42:17.676Z,18.91
2019-05-10T10:44:26.913Z,18.86
2019-05-10T10:46:34.799Z,19.09
2019-05-10T10:48:43.734Z,19.04
2019-05-10T10:50:55.565Z,19.34
2019-05-10T10:52:58.536Z,19.36
2019-05-10T10:57:19.963Z,19.16
2019-05-10T10:59:28.226Z,19.13
2019-05-10T11:01:49.136Z,19.27
2019-05-10T11:03:48.743Z,19.31
2019-05-10T11:05:54.132Z,19.23
2019-05-10T11:08:14.845Z,19.38
2019-05-10T11:10:18.575Z,19.17
2019-05-10T11:12:23.954Z,19.03
2019-05-10T11:14:39.856Z,19.24
2019-05-10T11:16:46.622Z,19.17
2019-05-10T11:18:55.010Z,19.06
2019-05-10T11:21:02.103Z,19.22
2019-05-10T11:23:10.688Z,19.30
2019-05-10T11:25:17.093Z,19.11
2019-05-10T11:27:23.463Z,19.41
2019-05-10T11:29:30.824Z,19.79
2019-05-10T11:31:41.345Z,20.02
2019-05-10T11:33:56.135Z,20.21
2019-05-10T11:35:57.664Z,20.22
2019-05-10T11:38:06.768Z,20.49
2019-05-10T11:40:18.005Z,20.58
2019-05-10T11:42:21.557Z,20.45
2019-05-10T11:44:27.865Z,20.40
2019-05-10T11:46:34.455Z,20.46
2019-05-10T11:48:42.249Z,20.34
2019-05-10T11:50:51.357Z,20.37
2019-05-10T11:52:57.017Z,20.33
2019-05-10T11:55:04.603Z,20.44
2019-05-10T11:57:13.751Z,20.41
2019-05-10T11:59:21.829Z,20.04
2019-05-10T12:01:27.702Z,19.89
2019-05-10T12:03:34.255Z,19.84
2019-05-10T12:05:42.485Z,19.78
2019-05-10T12:07:54.192Z,19.70
2019-05-10T12:10:07.532Z,19.80
2019-05-10T12:12:11.977Z,20.04
2019-05-10T12:14:16.520Z,20.00
2019-05-10T12:16:23.196Z,19.93
2019-05-10T12:18:35.649Z,20.01
2019-05-10T12:20:54.427Z,19.85
2019-05-10T12:22:47.754Z,19.74
2019-05-10T12:25:18.735Z,19.56
2019-05-10T12:27:17.251Z,19.48
2019-05-10T12:29:15.564Z,19.41
2019-05-10T12:31:21.008Z,19.49
2019-05-10T12:33:27.932Z,19.61
2019-05-10T12:35:39.317Z,20.03
2019-05-10T12:37:46.190Z,19.98
2019-05-10T12:39:52.931Z,20.13
2019-05-10T12:41:58.584Z,19.94
2019-05-10T12:44:08.017Z,19.96
2019-05-10T12:46:14.581Z,19.96
2019-05-10T12:48:23.229Z,20.06
2019-05-10T12:50:29.357Z,20.06
2019-05-10T12:52:35.940Z,19.88
2019-05-10T12:54:44.464Z,19.98
2019-05-10T12:56:50.505Z,20.28
2019-05-10T12:58:59.292Z,20.42
2019-05-10T13:01:04.959Z,20.54
2019-05-10T13:03:13.313Z,20.51
2019-05-10T13:05:30.789Z,20.54
2019-05-10T13:07:27.847Z,20.59
2019-05-10T13:09:39.882Z,20.65
2019-05-10T13:11:42.306Z,20.57
2019-05-10T13:13:52.023Z,20.37
2019-05-10T13:16:03.697Z,20.46
2019-05-10T13:18:08.653Z,20.71
2019-05-10T13:20:15.523Z,20.85
2019-05-10T13:22:21.893Z,20.88
2019-05-10T13:24:28.671Z,21.09
2019-05-10T13:26:35.040Z,21.25
2019-05-10T13:28:41.817Z,21.38
2019-05-10T13:30:49.607Z,21.35
2019-05-10T13:32:58.559Z,21.45
2019-05-10T13:35:06.988Z,21.58
2019-05-10T13:37:23.254Z,21.25
2019-05-10T13:39:25.650Z,21.09
2019-05-10T13:41:29.422Z,21.14
2019-05-10T13:43:35.864Z,21.18
2019-05-10T13:45:42.753Z,21.04
2019-05-10T13:47:50.328Z,20.95
2019-05-10T13:49:56.701Z,20.91
2019-05-10T13:52:03.144Z,20.86
2019-05-10T13:54:09.769Z,20.80
2019-05-10T13:56:16.546Z,20.75
2019-05-10T13:58:23.073Z,20.69
2019-05-10T14:00:34.050Z,20.70
2019-05-10T14:02:38.249Z,20.68
2019-05-10T14:04:44.621Z,20.74
2019-05-10T14:06:50.992Z,20.82
2019-05-10T14:08:57.665Z,20.78
2019-05-10T14:11:04.123Z,20.71
2019-05-10T14:13:10.672Z,20.63
2019-05-10T14:15:19.294Z,20.61
2019-05-10T14:17:26.282Z,20.84
2019-05-10T14:19:35.926Z,20.95
2019-05-10T14:21:40.744Z,21.11
2019-05-10T14:23:47.601Z,21.30
2019-05-10T14:25:55.683Z,21.48
2019-05-10T14:28:09.467Z,21.16
2019-05-10T14:30:15.831Z,20.85
2019-05-10T14:32:20.295Z,20.85
2019-05-10T14:34:26.902Z,20.77
2019-05-10T14:36:40.698Z,20.81
2019-05-10T14:38:47.533Z,20.79
2019-05-10T14:40:51.921Z,20.68
2019-05-10T14:42:58.289Z,20.60
2019-05-10T14:45:05.764Z,20.62
2019-05-10T14:47:13.164Z,20.52
2019-05-10T14:49:20.775Z,20.41
2019-05-10T14:51:40.315Z,20.34
2019-05-10T14:53:35.425Z,20.14
2019-05-10T14:55:42.176Z,20.11
2019-05-10T14:57:50.498Z,20.03
2019-05-10T14:59:57.082Z,19.96
2019-05-10T15:02:03.644Z,19.84
2019-05-10T15:04:10.225Z,19.55
2019-05-10T15:06:16.889Z,19.20
2019-05-10T15:08:23.532Z,18.73
2019-05-10T15:10:33.180Z,18.43
2019-05-10T15:12:38.021Z,18.08
2019-05-10T15:14:44.688Z,17.90
2019-05-10T15:16:51.351Z,17.86
2019-05-10T15:18:59.361Z,17.80
2019-05-10T15:21:06.348Z,17.84
2019-05-10T15:23:13.012Z,17.96
2019-05-10T15:25:19.887Z,17.84
2019-05-10T15:27:26.348Z,17.79
2019-05-10T15:29:33.836Z,17.85
2019-05-10T15:31:42.751Z,17.63
2019-05-10T15:33:49.429Z,17.52
2019-05-10T15:35:55.874Z,17.44
2019-05-10T15:38:02.620Z,17.55
2019-05-10T15:40:12.080Z,17.61
2019-05-10T15:42:21.800Z,17.40
2019-05-10T15:44:31.541Z,17.18
2019-05-10T15:46:41.721Z,17.36
2019-05-10T15:48:44.192Z,17.23
2019-05-10T15:50:51.698Z,17.06
2019-05-10T15:52:58.362Z,16.86
2019-05-10T15:55:06.607Z,16.62
2019-05-10T15:57:20.005Z,16.36
2019-05-10T15:59:22.995Z,16.28
2019-05-10T16:01:30.785Z,16.23
2019-05-10T16:03:39.197Z,16.20
2019-05-10T16:05:58.849Z,16.12
2019-05-10T16:07:53.875Z,16.05
2019-05-10T16:10:00.444Z,15.95
2019-05-10T16:12:08.664Z,15.94
2019-05-10T16:14:15.318Z,15.97
2019-05-10T16:16:22.292Z,16.03
2019-05-10T16:18:33.334Z,16.10
2019-05-10T16:20:39.107Z,16.07
2019-05-10T16:22:45.980Z,16.10
2019-05-10T16:24:52.901Z,16.10
2019-05-10T16:27:00.029Z,16.14
2019-05-10T16:29:07.630Z,16.13
2019-05-10T16:31:14.297Z,16.06
2019-05-10T16:33:21.640Z,16.04
2019-05-10T16:35:38.493Z,16.02
2019-05-10T16:37:37.674Z,16.07
2019-05-10T16:39:44.466Z,16.12
2019-05-10T16:41:50.918Z,16.17
2019-05-10T16:44:01.334Z,16.30
2019-05-10T16:46:07.934Z,16.49
2019-05-10T16:48:15.740Z,16.57
2019-05-10T16:50:26.185Z,16.85
2019-05-10T16:52:31.641Z,17.35
2019-05-10T16:54:40.766Z,17.66
2019-05-10T16:56:51.746Z,17.73
2019-05-10T16:58:55.204Z,17.66
2019-05-10T17:01:03.345Z,17.54
2019-05-10T17:03:13.199Z,17.36
2019-05-10T17:05:21.169Z,17.13
2019-05-10T17:07:28.562Z,17.01
2019-05-10T17:09:35.652Z,16.90
2019-05-10T17:11:46.804Z,16.90
2019-05-10T17:13:50.322Z,16.87
2019-05-10T17:15:56.686Z,16.82
2019-05-10T17:18:04.533Z,16.77
2019-05-10T17:20:14.732Z,16.57
2019-05-10T17:22:21.298Z,16.52
2019-05-10T17:24:27.841Z,16.42
2019-05-10T17:26:34.734Z,16.29
2019-05-10T17:28:41.505Z,16.17
2019-05-10T17:30:47.880Z,16.02
2019-05-10T17:32:57.805Z,15.93
2019-05-10T17:35:05.322Z,15.85
2019-05-10T17:37:13.554Z,15.79
2019-05-10T17:39:20.199Z,15.72
2019-05-10T17:41:27.061Z,15.64
2019-05-10T17:43:33.885Z,15.59
2019-05-10T17:45:42.254Z,15.56
2019-05-10T17:47:50.146Z,15.51
2019-05-10T17:49:58.170Z,15.44
2019-05-10T17:52:05.121Z,15.40
2019-05-10T17:54:11.546Z,15.36
2019-05-10T17:56:19.594Z,15.34
2019-05-10T17:58:27.948Z,15.31
2019-05-10T18:00:34.374Z,15.26
2019-05-10T18:02:40.859Z,15.24
2019-05-10T18:04:47.192Z,15.22
2019-05-10T18:06:53.648Z,15.17
2019-05-10T18:09:00.120Z,15.13
2019-05-10T18:11:09.467Z,15.08
2019-05-10T18:13:15.800Z,15.05
2019-05-10T18:15:22.373Z,15.00
2019-05-10T18:17:28.749Z,14.96
2019-05-10T18:19:35.087Z,14.90
2019-05-10T18:21:41.486Z,14.86
2019-05-10T18:23:52.681Z,14.84
2019-05-10T18:25:58.651Z,14.81
2019-05-10T18:28:05.987Z,14.77
2019-05-10T18:30:13.310Z,14.77
2019-05-10T18:32:20.073Z,14.76
2019-05-10T18:34:33.053Z,14.74
2019-05-10T18:36:51.169Z,14.71
2019-05-10T18:38:43.954Z,14.66
2019-05-10T18:40:50.840Z,14.62
2019-05-10T18:43:03.044Z,14.57
2019-05-10T18:45:08.627Z,14.51
2019-05-10T18:47:15.546Z,14.47
2019-05-10T18:49:22.209Z,14.43
2019-05-10T18:51:28.910Z,14.39
2019-05-10T18:53:35.457Z,14.36
2019-05-10T18:55:41.817Z,14.32
2019-05-10T18:57:50.758Z,14.26
2019-05-10T18:59:56.379Z,14.19
2019-05-10T19:02:03.169Z,14.09
2019-05-10T19:04:14.222Z,14.02
2019-05-10T19:06:18.735Z,13.92
2019-05-10T19:08:28.524Z,13.81
2019-05-10T19:10:36.412Z,13.71
2019-05-10T19:12:43.400Z,13.64
2019-05-10T19:14:52.182Z,13.62
2019-05-10T19:17:03.693Z,13.58
2019-05-10T19:19:06.866Z,13.55
2019-05-10T19:21:15.032Z,13.47
2019-05-10T19:23:21.850Z,13.40
2019-05-10T19:25:28.196Z,13.31
2019-05-10T19:27:38.853Z,13.23
2019-05-10T19:29:46.090Z,13.16
2019-05-10T19:31:54.357Z,13.05
2019-05-10T19:34:00.746Z,12.98
2019-05-10T19:36:12.513Z,12.91
2019-05-10T19:38:17.258Z,12.83
2019-05-10T19:40:24.547Z,12.76
2019-05-10T19:42:37.385Z,12.70
2019-05-10T19:44:42.231Z,12.64
2019-05-10T19:46:49.244Z,12.60
2019-05-10T19:48:55.617Z,12.56
2019-05-10T19:51:02.846Z,12.55
2019-05-10T19:53:13.449Z,12.54
2019-05-10T19:55:21.751Z,12.53
2019-05-10T19:57:28.225Z,12.51
2019-05-10T19:59:34.587Z,12.51
2019-05-10T20:01:44.773Z,12.51
2019-05-10T20:03:51.495Z,12.50
2019-05-10T20:06:00.761Z,12.48
2019-05-10T20:08:07.085Z,12.46
2019-05-10T20:10:14.503Z,12.45
2019-05-10T20:12:21.063Z,12.43
2019-05-10T20:14:27.735Z,12.43
2019-05-10T20:16:34.223Z,12.40
2019-05-10T20:18:42.271Z,12.39
2019-05-10T20:20:48.667Z,12.39
2019-05-10T20:22:55.395Z,12.35
2019-05-10T20:25:02.204Z,12.32
2019-05-10T20:27:08.661Z,12.29
2019-05-10T20:29:15.314Z,12.27
2019-05-10T20:31:21.976Z,12.23
2019-05-10T20:33:28.415Z,12.20
2019-05-10T20:35:38.607Z,12.22
2019-05-10T20:38:00.344Z,12.22
2019-05-10T20:39:53.186Z,12.24
2019-05-10T20:41:59.577Z,12.24
2019-05-10T20:44:07.116Z,12.26
2019-05-10T20:46:13.809Z,12.26
2019-05-10T20:48:20.612Z,12.27
2019-05-10T20:50:28.705Z,12.24
2019-05-10T20:52:36.169Z,12.22
2019-05-10T20:54:42.653Z,12.21
2019-05-10T20:56:50.549Z,12.21
2019-05-10T20:58:57.291Z,12.19
2019-05-10T21:01:05.694Z,12.19
2019-05-10T21:03:13.876Z,12.18
2019-05-10T21:05:20.719Z,12.15
2019-05-10T21:07:27.399Z,12.13
2019-05-10T21:09:33.854Z,12.14
2019-05-10T21:11:40.190Z,12.14
2019-05-10T21:13:46.866Z,12.12
2019-05-10T21:15:54.518Z,12.11
2019-05-10T21:18:01.643Z,12.09
2019-05-10T21:20:10.056Z,12.08
2019-05-10T21:22:17.527Z,12.05
2019-05-10T21:24:23.905Z,12.00
2019-05-10T21:26:32.457Z,11.98
2019-05-10T21:28:39.401Z,11.97
2019-05-10T21:30:46.226Z,11.99
2019-05-10T21:32:54.062Z,12.00
2019-05-10T21:35:03.156Z,12.03
2019-05-10T21:37:09.789Z,12.05
2019-05-10T21:39:16.524Z,12.04
2019-05-10T21:41:23.103Z,12.03
2019-05-10T21:43:29.527Z,11.99
2019-05-10T21:45:36.048Z,11.96
2019-05-10T21:47:51.577Z,11.94
2019-05-10T21:49:52.645Z,11.91
2019-05-10T21:52:01.008Z,11.87
2019-05-10T21:54:07.733Z,11.83
2019-05-10T21:56:14.096Z,11.79
2019-05-10T21:58:25.783Z,11.81
2019-05-10T22:00:43.009Z,11.74
2019-05-10T22:02:49.733Z,11.68
2019-05-10T22:04:56.510Z,11.63
2019-05-10T22:07:03.356Z,11.56
2019-05-10T22:09:10.927Z,11.52
2019-05-10T22:11:17.600Z,11.46
2019-05-10T22:13:24.212Z,11.40
2019-05-10T22:15:30.623Z,11.36
2019-05-10T22:17:37.512Z,11.30
2019-05-10T22:19:45.617Z,11.26
2019-05-10T22:21:55.199Z,11.24
2019-05-10T22:24:00.375Z,11.22
2019-05-10T22:26:06.860Z,11.27
2019-05-10T22:28:13.229Z,11.28
2019-05-10T22:30:19.783Z,11.29
2019-05-10T22:32:27.047Z,11.35
2019-05-10T22:34:33.523Z,11.35
2019-05-10T22:36:40.131Z,11.35
2019-05-10T22:38:46.435Z,11.35
2019-05-10T22:40:53.107Z,11.34
2019-05-10T22:43:01.740Z,11.34
2019-05-10T22:45:09.312Z,11.33
2019-05-10T22:47:15.945Z,11.31
2019-05-10T22:49:22.515Z,11.30
2019-05-10T22:51:29.646Z,11.31
2019-05-10T22:53:37.437Z,11.33
2019-05-10T22:55:43.852Z,11.35
2019-05-10T22:57:50.686Z,11.40
2019-05-10T22:59:57.035Z,11.45
2019-05-10T23:02:03.606Z,11.48
2019-05-10T23:04:10.569Z,11.49
2019-05-10T23:06:16.939Z,11.50
2019-05-10T23:08:23.306Z,11.50
2019-05-10T23:10:38.270Z,11.53
2019-05-10T23:12:44.629Z,11.53
2019-05-10T23:14:52.956Z,11.54
2019-05-10T23:16:59.747Z,11.54
2019-05-10T23:19:06.086Z,11.54
2019-05-10T23:21:13.976Z,11.55
2019-05-10T23:23:21.121Z,11.55
2019-05-10T23:25:28.228Z,11.55
2019-05-10T23:27:34.666Z,11.55
2019-05-10T23:29:43.735Z,11.56
2019-05-10T23:31:50.078Z,11.55
2019-05-10T23:33:56.898Z,11.54
2019-05-10T23:36:03.218Z,11.53
2019-05-10T23:38:10.887Z,11.53
2019-05-10T23:40:17.392Z,11.51
2019-05-10T23:42:23.839Z,11.48
2019-05-10T23:44:30.516Z,11.47
2019-05-10T23:46:37.240Z,11.43
2019-05-10T23:48:43.912Z,11.40
2019-05-10T23:50:50.516Z,11.36
2019-05-10T23:52:56.897Z,11.34
2019-05-10T23:55:03.252Z,11.31
2019-05-10T23:57:10.113Z,11.29
2019-05-10T23:59:16.488Z,11.25
